sensor_id;sensor_type;location;lat;lon;timestamp;P1;durP1;ratioP1;P2;durP2;ratioP2
55172;SDS011;41061;52.822;6.860;2022-11-20T00:01:12;18.77;;;9.35;;
55172;SDS011;41061;52.822;6.860;2022-11-20T00:03:43;16.20;;;9.70;;
55172;SDS011;41061;52.822;6.860;2022-11-20T00:06:10;17.15;;;8.57;;
55172;SDS011;41061;52.822;6.860;2022-11-20T00:08:38;39.47;;;14.93;;
55172;SDS011;41061;52.822;6.860;2022-11-20T00:11:08;39.40;;;14.32;;
55172;SDS011;41061;52.822;6.860;2022-11-20T00:13:38;33.72;;;13.20;;
55172;SDS011;41061;52.822;6.860;2022-11-20T00:16:05;26.60;;;12.25;;
55172;SDS011;41061;52.822;6.860;2022-11-20T00:18:32;19.27;;;10.32;;
55172;SDS011;41061;52.822;6.860;2022-11-20T00:21:06;21.75;;;10.77;;
55172;SDS011;41061;52.822;6.860;2022-11-20T00:23:35;17.85;;;9.75;;
55172;SDS011;41061;52.822;6.860;2022-11-20T00:26:01;19.40;;;10.05;;
55172;SDS011;41061;52.822;6.860;2022-11-20T00:28:31;19.58;;;9.88;;
55172;SDS011;41061;52.822;6.860;2022-11-20T00:31:15;23.67;;;10.82;;
55172;SDS011;41061;52.822;6.860;2022-11-20T00:33:42;21.58;;;10.73;;
55172;SDS011;41061;52.822;6.860;2022-11-20T00:36:18;20.48;;;11.25;;
55172;SDS011;41061;52.822;6.860;2022-11-20T00:38:46;18.50;;;10.98;;
55172;SDS011;41061;52.822;6.860;2022-11-20T00:41:13;20.88;;;11.05;;
55172;SDS011;41061;52.822;6.860;2022-11-20T00:43:40;20.92;;;10.88;;
55172;SDS011;41061;52.822;6.860;2022-11-20T00:46:08;20.83;;;11.70;;
55172;SDS011;41061;52.822;6.860;2022-11-20T00:48:38;21.73;;;10.73;;
55172;SDS011;41061;52.822;6.860;2022-11-20T00:51:03;21.00;;;10.90;;
55172;SDS011;41061;52.822;6.860;2022-11-20T00:53:29;21.38;;;11.10;;
55172;SDS011;41061;52.822;6.860;2022-11-20T00:55:56;19.45;;;10.68;;
55172;SDS011;41061;52.822;6.860;2022-11-20T00:58:23;26.05;;;15.07;;
55172;SDS011;41061;52.822;6.860;2022-11-20T01:00:49;23.05;;;13.90;;
55172;SDS011;41061;52.822;6.860;2022-11-20T01:03:16;22.23;;;12.10;;
55172;SDS011;41061;52.822;6.860;2022-11-20T01:05:42;18.08;;;10.80;;
55172;SDS011;41061;52.822;6.860;2022-11-20T01:08:08;17.63;;;10.15;;
55172;SDS011;41061;52.822;6.860;2022-11-20T01:10:34;18.90;;;10.88;;
55172;SDS011;41061;52.822;6.860;2022-11-20T01:12:59;20.00;;;11.55;;
55172;SDS011;41061;52.822;6.860;2022-11-20T01:15:44;19.02;;;10.55;;
55172;SDS011;41061;52.822;6.860;2022-11-20T01:18:09;20.38;;;10.25;;
55172;SDS011;41061;52.822;6.860;2022-11-20T01:20:35;19.15;;;10.65;;
55172;SDS011;41061;52.822;6.860;2022-11-20T01:23:02;18.65;;;9.80;;
55172;SDS011;41061;52.822;6.860;2022-11-20T01:25:28;17.63;;;10.50;;
55172;SDS011;41061;52.822;6.860;2022-11-20T01:27:54;16.13;;;10.15;;
55172;SDS011;41061;52.822;6.860;2022-11-20T01:30:19;21.83;;;10.55;;
55172;SDS011;41061;52.822;6.860;2022-11-20T01:32:45;18.95;;;10.65;;
55172;SDS011;41061;52.822;6.860;2022-11-20T01:35:11;17.88;;;10.57;;
55172;SDS011;41061;52.822;6.860;2022-11-20T01:37:36;18.90;;;10.45;;
55172;SDS011;41061;52.822;6.860;2022-11-20T01:40:02;19.48;;;10.07;;
55172;SDS011;41061;52.822;6.860;2022-11-20T01:42:28;19.73;;;10.52;;
55172;SDS011;41061;52.822;6.860;2022-11-20T01:48:15;18.88;;;10.18;;
55172;SDS011;41061;52.822;6.860;2022-11-20T01:50:42;18.38;;;10.93;;
55172;SDS011;41061;52.822;6.860;2022-11-20T01:53:10;18.75;;;11.35;;
55172;SDS011;41061;52.822;6.860;2022-11-20T01:55:40;20.48;;;10.18;;
55172;SDS011;41061;52.822;6.860;2022-11-20T01:58:10;17.85;;;10.13;;
55172;SDS011;41061;52.822;6.860;2022-11-20T02:00:37;19.27;;;10.52;;
55172;SDS011;41061;52.822;6.860;2022-11-20T02:03:06;22.30;;;12.48;;
55172;SDS011;41061;52.822;6.860;2022-11-20T02:05:44;20.17;;;11.05;;
55172;SDS011;41061;52.822;6.860;2022-11-20T02:08:17;17.40;;;9.13;;
55172;SDS011;41061;52.822;6.860;2022-11-20T02:10:44;18.90;;;9.95;;
55172;SDS011;41061;52.822;6.860;2022-11-20T02:13:10;20.67;;;10.48;;
55172;SDS011;41061;52.822;6.860;2022-11-20T02:15:54;16.80;;;10.35;;
55172;SDS011;41061;52.822;6.860;2022-11-20T02:18:20;17.73;;;10.70;;
55172;SDS011;41061;52.822;6.860;2022-11-20T02:20:49;18.25;;;9.90;;
55172;SDS011;41061;52.822;6.860;2022-11-20T02:23:21;18.17;;;10.10;;
55172;SDS011;41061;52.822;6.860;2022-11-20T02:25:49;18.92;;;10.27;;
55172;SDS011;41061;52.822;6.860;2022-11-20T02:28:17;17.92;;;10.40;;
55172;SDS011;41061;52.822;6.860;2022-11-20T02:30:43;20.65;;;10.45;;
55172;SDS011;41061;52.822;6.860;2022-11-20T02:33:09;16.60;;;9.88;;
55172;SDS011;41061;52.822;6.860;2022-11-20T02:38:01;18.77;;;9.90;;
55172;SDS011;41061;52.822;6.860;2022-11-20T02:40:27;20.27;;;10.65;;
55172;SDS011;41061;52.822;6.860;2022-11-20T02:42:56;19.08;;;10.02;;
55172;SDS011;41061;52.822;6.860;2022-11-20T02:45:23;20.40;;;10.70;;
55172;SDS011;41061;52.822;6.860;2022-11-20T02:47:49;16.77;;;9.20;;
55172;SDS011;41061;52.822;6.860;2022-11-20T02:50:15;19.00;;;9.73;;
55172;SDS011;41061;52.822;6.860;2022-11-20T02:52:41;17.90;;;11.05;;
55172;SDS011;41061;52.822;6.860;2022-11-20T02:55:06;17.85;;;9.43;;
55172;SDS011;41061;52.822;6.860;2022-11-20T02:57:32;19.55;;;10.35;;
55172;SDS011;41061;52.822;6.860;2022-11-20T02:59:58;16.40;;;9.88;;
55172;SDS011;41061;52.822;6.860;2022-11-20T03:02:24;15.82;;;9.65;;
55172;SDS011;41061;52.822;6.860;2022-11-20T03:04:49;19.98;;;11.02;;
55172;SDS011;41061;52.822;6.860;2022-11-20T03:07:15;20.02;;;10.50;;
55172;SDS011;41061;52.822;6.860;2022-11-20T03:09:41;20.77;;;11.88;;
55172;SDS011;41061;52.822;6.860;2022-11-20T03:12:06;21.50;;;10.48;;
55172;SDS011;41061;52.822;6.860;2022-11-20T03:14:32;20.75;;;10.75;;
55172;SDS011;41061;52.822;6.860;2022-11-20T03:16:58;17.42;;;10.48;;
55172;SDS011;41061;52.822;6.860;2022-11-20T03:19:23;20.70;;;10.30;;
55172;SDS011;41061;52.822;6.860;2022-11-20T03:21:49;18.33;;;10.23;;
55172;SDS011;41061;52.822;6.860;2022-11-20T03:24:15;19.23;;;10.02;;
55172;SDS011;41061;52.822;6.860;2022-11-20T03:26:41;19.77;;;10.20;;
55172;SDS011;41061;52.822;6.860;2022-11-20T03:29:06;20.70;;;11.32;;
55172;SDS011;41061;52.822;6.860;2022-11-20T03:31:33;20.60;;;11.27;;
55172;SDS011;41061;52.822;6.860;2022-11-20T03:34:01;17.75;;;9.90;;
55172;SDS011;41061;52.822;6.860;2022-11-20T03:36:28;20.02;;;10.63;;
55172;SDS011;41061;52.822;6.860;2022-11-20T03:38:54;17.85;;;9.90;;
55172;SDS011;41061;52.822;6.860;2022-11-20T03:41:30;18.40;;;10.57;;
55172;SDS011;41061;52.822;6.860;2022-11-20T03:44:00;20.23;;;9.75;;
55172;SDS011;41061;52.822;6.860;2022-11-20T03:46:27;17.13;;;9.80;;
55172;SDS011;41061;52.822;6.860;2022-11-20T03:48:54;20.23;;;10.63;;
55172;SDS011;41061;52.822;6.860;2022-11-20T03:51:21;17.08;;;9.85;;
55172;SDS011;41061;52.822;6.860;2022-11-20T03:53:50;16.25;;;9.50;;
55172;SDS011;41061;52.822;6.860;2022-11-20T03:56:18;16.80;;;9.70;;
55172;SDS011;41061;52.822;6.860;2022-11-20T03:58:46;16.30;;;9.63;;
55172;SDS011;41061;52.822;6.860;2022-11-20T04:01:13;16.13;;;9.85;;
55172;SDS011;41061;52.822;6.860;2022-11-20T04:03:43;17.40;;;10.38;;
55172;SDS011;41061;52.822;6.860;2022-11-20T04:06:13;16.90;;;9.82;;
55172;SDS011;41061;52.822;6.860;2022-11-20T04:08:44;17.70;;;9.38;;
55172;SDS011;41061;52.822;6.860;2022-11-20T04:11:17;16.65;;;9.40;;
55172;SDS011;41061;52.822;6.860;2022-11-20T04:13:55;16.48;;;10.23;;
55172;SDS011;41061;52.822;6.860;2022-11-20T04:16:22;17.08;;;9.43;;
55172;SDS011;41061;52.822;6.860;2022-11-20T04:18:56;15.60;;;8.95;;
55172;SDS011;41061;52.822;6.860;2022-11-20T04:21:24;17.15;;;9.30;;
55172;SDS011;41061;52.822;6.860;2022-11-20T04:23:51;20.85;;;9.82;;
55172;SDS011;41061;52.822;6.860;2022-11-20T04:26:21;17.35;;;9.52;;
55172;SDS011;41061;52.822;6.860;2022-11-20T04:28:49;21.30;;;10.18;;
55172;SDS011;41061;52.822;6.860;2022-11-20T04:31:15;18.17;;;9.60;;
55172;SDS011;41061;52.822;6.860;2022-11-20T04:33:45;17.83;;;9.45;;
55172;SDS011;41061;52.822;6.860;2022-11-20T04:36:16;16.67;;;9.38;;
55172;SDS011;41061;52.822;6.860;2022-11-20T04:38:50;16.17;;;9.60;;
55172;SDS011;41061;52.822;6.860;2022-11-20T04:41:20;15.63;;;10.07;;
55172;SDS011;41061;52.822;6.860;2022-11-20T04:43:51;15.68;;;9.43;;
55172;SDS011;41061;52.822;6.860;2022-11-20T04:46:18;13.73;;;9.35;;
55172;SDS011;41061;52.822;6.860;2022-11-20T04:48:45;18.13;;;9.98;;
55172;SDS011;41061;52.822;6.860;2022-11-20T04:51:12;18.83;;;10.07;;
55172;SDS011;41061;52.822;6.860;2022-11-20T04:53:38;23.52;;;12.45;;
55172;SDS011;41061;52.822;6.860;2022-11-20T04:56:05;23.38;;;11.85;;
55172;SDS011;41061;52.822;6.860;2022-11-20T04:58:32;19.55;;;10.77;;
55172;SDS011;41061;52.822;6.860;2022-11-20T05:01:05;17.30;;;10.07;;
55172;SDS011;41061;52.822;6.860;2022-11-20T05:03:37;18.33;;;10.85;;
55172;SDS011;41061;52.822;6.860;2022-11-20T05:06:03;17.15;;;9.50;;
55172;SDS011;41061;52.822;6.860;2022-11-20T05:08:30;18.27;;;10.13;;
55172;SDS011;41061;52.822;6.860;2022-11-20T05:11:06;17.25;;;9.82;;
55172;SDS011;41061;52.822;6.860;2022-11-20T05:13:33;16.52;;;10.00;;
55172;SDS011;41061;52.822;6.860;2022-11-20T05:16:06;18.05;;;9.75;;
55172;SDS011;41061;52.822;6.860;2022-11-20T05:18:36;15.63;;;9.07;;
55172;SDS011;41061;52.822;6.860;2022-11-20T05:21:03;18.10;;;10.55;;
55172;SDS011;41061;52.822;6.860;2022-11-20T05:23:30;18.42;;;10.43;;
55172;SDS011;41061;52.822;6.860;2022-11-20T05:25:57;21.38;;;11.25;;
55172;SDS011;41061;52.822;6.860;2022-11-20T05:28:24;17.85;;;10.43;;
55172;SDS011;41061;52.822;6.860;2022-11-20T05:30:50;21.05;;;10.10;;
55172;SDS011;41061;52.822;6.860;2022-11-20T05:33:16;16.40;;;9.60;;
55172;SDS011;41061;52.822;6.860;2022-11-20T05:35:43;18.27;;;9.90;;
55172;SDS011;41061;52.822;6.860;2022-11-20T05:38:08;18.17;;;10.32;;
55172;SDS011;41061;52.822;6.860;2022-11-20T05:40:34;17.75;;;9.90;;
55172;SDS011;41061;52.822;6.860;2022-11-20T05:43:00;17.95;;;10.57;;
55172;SDS011;41061;52.822;6.860;2022-11-20T05:45:26;24.15;;;12.50;;
55172;SDS011;41061;52.822;6.860;2022-11-20T05:47:52;19.08;;;11.07;;
55172;SDS011;41061;52.822;6.860;2022-11-20T05:50:18;20.35;;;11.85;;
55172;SDS011;41061;52.822;6.860;2022-11-20T05:52:43;19.85;;;11.45;;
55172;SDS011;41061;52.822;6.860;2022-11-20T05:55:09;17.33;;;9.77;;
55172;SDS011;41061;52.822;6.860;2022-11-20T05:57:35;16.20;;;9.93;;
55172;SDS011;41061;52.822;6.860;2022-11-20T06:00:01;16.33;;;9.43;;
55172;SDS011;41061;52.822;6.860;2022-11-20T06:02:27;17.00;;;10.05;;
55172;SDS011;41061;52.822;6.860;2022-11-20T06:04:53;15.13;;;9.15;;
55172;SDS011;41061;52.822;6.860;2022-11-20T06:07:19;19.92;;;10.25;;
55172;SDS011;41061;52.822;6.860;2022-11-20T06:09:44;16.30;;;9.40;;
55172;SDS011;41061;52.822;6.860;2022-11-20T06:12:10;17.45;;;9.82;;
55172;SDS011;41061;52.822;6.860;2022-11-20T06:14:36;21.85;;;12.85;;
55172;SDS011;41061;52.822;6.860;2022-11-20T06:17:01;27.83;;;14.88;;
55172;SDS011;41061;52.822;6.860;2022-11-20T06:19:27;24.23;;;13.18;;
55172;SDS011;41061;52.822;6.860;2022-11-20T06:21:53;17.15;;;10.68;;
55172;SDS011;41061;52.822;6.860;2022-11-20T06:24:18;17.10;;;9.27;;
55172;SDS011;41061;52.822;6.860;2022-11-20T06:26:44;19.58;;;10.75;;
55172;SDS011;41061;52.822;6.860;2022-11-20T06:29:10;18.60;;;11.38;;
55172;SDS011;41061;52.822;6.860;2022-11-20T06:31:36;19.13;;;10.85;;
55172;SDS011;41061;52.822;6.860;2022-11-20T06:34:05;13.85;;;8.85;;
55172;SDS011;41061;52.822;6.860;2022-11-20T06:36:31;14.90;;;8.68;;
55172;SDS011;41061;52.822;6.860;2022-11-20T06:38:58;16.52;;;9.18;;
55172;SDS011;41061;52.822;6.860;2022-11-20T06:41:24;24.95;;;13.93;;
55172;SDS011;41061;52.822;6.860;2022-11-20T06:43:50;19.60;;;11.30;;
55172;SDS011;41061;52.822;6.860;2022-11-20T06:46:17;22.65;;;11.95;;
55172;SDS011;41061;52.822;6.860;2022-11-20T06:48:43;19.67;;;10.35;;
55172;SDS011;41061;52.822;6.860;2022-11-20T06:51:09;20.13;;;12.25;;
55172;SDS011;41061;52.822;6.860;2022-11-20T06:53:35;19.92;;;12.40;;
55172;SDS011;41061;52.822;6.860;2022-11-20T06:56:01;18.88;;;11.07;;
55172;SDS011;41061;52.822;6.860;2022-11-20T06:58:28;18.45;;;10.23;;
55172;SDS011;41061;52.822;6.860;2022-11-20T07:00:58;16.85;;;10.00;;
55172;SDS011;41061;52.822;6.860;2022-11-20T07:03:24;15.18;;;9.38;;
55172;SDS011;41061;52.822;6.860;2022-11-20T07:05:50;17.73;;;10.10;;
55172;SDS011;41061;52.822;6.860;2022-11-20T07:08:15;17.48;;;10.00;;
55172;SDS011;41061;52.822;6.860;2022-11-20T07:10:41;17.88;;;9.50;;
55172;SDS011;41061;52.822;6.860;2022-11-20T07:13:07;16.98;;;9.13;;
55172;SDS011;41061;52.822;6.860;2022-11-20T07:15:32;15.80;;;9.27;;
55172;SDS011;41061;52.822;6.860;2022-11-20T07:17:59;13.38;;;8.63;;
55172;SDS011;41061;52.822;6.860;2022-11-20T07:20:25;15.40;;;9.35;;
55172;SDS011;41061;52.822;6.860;2022-11-20T07:22:57;17.60;;;9.93;;
55172;SDS011;41061;52.822;6.860;2022-11-20T07:25:23;15.73;;;9.35;;
55172;SDS011;41061;52.822;6.860;2022-11-20T07:27:52;18.10;;;9.48;;
55172;SDS011;41061;52.822;6.860;2022-11-20T07:30:22;17.27;;;9.35;;
55172;SDS011;41061;52.822;6.860;2022-11-20T07:32:47;16.33;;;9.27;;
55172;SDS011;41061;52.822;6.860;2022-11-20T07:35:16;16.15;;;9.57;;
55172;SDS011;41061;52.822;6.860;2022-11-20T07:37:41;15.20;;;9.38;;
55172;SDS011;41061;52.822;6.860;2022-11-20T07:40:07;19.27;;;10.38;;
55172;SDS011;41061;52.822;6.860;2022-11-20T07:42:33;15.98;;;8.90;;
55172;SDS011;41061;52.822;6.860;2022-11-20T07:44:59;18.02;;;9.82;;
55172;SDS011;41061;52.822;6.860;2022-11-20T07:47:25;18.63;;;9.90;;
55172;SDS011;41061;52.822;6.860;2022-11-20T07:49:50;16.17;;;9.60;;
55172;SDS011;41061;52.822;6.860;2022-11-20T07:52:16;14.93;;;9.48;;
55172;SDS011;41061;52.822;6.860;2022-11-20T07:54:42;13.02;;;8.52;;
55172;SDS011;41061;52.822;6.860;2022-11-20T07:57:07;17.25;;;9.98;;
55172;SDS011;41061;52.822;6.860;2022-11-20T07:59:33;15.27;;;9.80;;
55172;SDS011;41061;52.822;6.860;2022-11-20T08:01:59;17.90;;;9.95;;
55172;SDS011;41061;52.822;6.860;2022-11-20T08:04:24;18.55;;;10.18;;
55172;SDS011;41061;52.822;6.860;2022-11-20T08:06:51;16.70;;;9.65;;
55172;SDS011;41061;52.822;6.860;2022-11-20T08:09:17;14.82;;;9.32;;
55172;SDS011;41061;52.822;6.860;2022-11-20T08:11:43;18.88;;;9.95;;
55172;SDS011;41061;52.822;6.860;2022-11-20T08:14:27;17.95;;;9.55;;
55172;SDS011;41061;52.822;6.860;2022-11-20T08:16:52;15.77;;;9.70;;
55172;SDS011;41061;52.822;6.860;2022-11-20T08:19:18;15.38;;;9.70;;
55172;SDS011;41061;52.822;6.860;2022-11-20T08:21:45;16.17;;;10.18;;
55172;SDS011;41061;52.822;6.860;2022-11-20T08:24:11;15.38;;;9.77;;
55172;SDS011;41061;52.822;6.860;2022-11-20T08:26:37;36.70;;;16.35;;
55172;SDS011;41061;52.822;6.860;2022-11-20T08:29:04;49.65;;;19.92;;
55172;SDS011;41061;52.822;6.860;2022-11-20T08:31:30;24.10;;;13.32;;
55172;SDS011;41061;52.822;6.860;2022-11-20T08:33:56;17.60;;;9.85;;
55172;SDS011;41061;52.822;6.860;2022-11-20T08:36:23;18.50;;;10.52;;
55172;SDS011;41061;52.822;6.860;2022-11-20T08:38:50;19.98;;;11.15;;
55172;SDS011;41061;52.822;6.860;2022-11-20T08:41:16;15.93;;;10.15;;
55172;SDS011;41061;52.822;6.860;2022-11-20T08:46:24;20.90;;;10.80;;
55172;SDS011;41061;52.822;6.860;2022-11-20T08:48:51;17.08;;;10.70;;
55172;SDS011;41061;52.822;6.860;2022-11-20T08:51:18;18.52;;;12.13;;
55172;SDS011;41061;52.822;6.860;2022-11-20T08:53:45;20.15;;;12.98;;
55172;SDS011;41061;52.822;6.860;2022-11-20T08:56:11;17.15;;;9.77;;
55172;SDS011;41061;52.822;6.860;2022-11-20T08:58:37;18.05;;;10.10;;
55172;SDS011;41061;52.822;6.860;2022-11-20T09:01:03;16.52;;;9.77;;
55172;SDS011;41061;52.822;6.860;2022-11-20T09:03:29;17.10;;;10.25;;
55172;SDS011;41061;52.822;6.860;2022-11-20T09:06:04;16.75;;;9.35;;
55172;SDS011;41061;52.822;6.860;2022-11-20T09:08:31;18.50;;;9.50;;
55172;SDS011;41061;52.822;6.860;2022-11-20T09:10:58;15.15;;;9.20;;
55172;SDS011;41061;52.822;6.860;2022-11-20T09:13:25;15.93;;;9.18;;
55172;SDS011;41061;52.822;6.860;2022-11-20T09:15:55;19.00;;;9.95;;
55172;SDS011;41061;52.822;6.860;2022-11-20T09:18:39;17.30;;;10.25;;
55172;SDS011;41061;52.822;6.860;2022-11-20T09:21:06;25.15;;;15.35;;
55172;SDS011;41061;52.822;6.860;2022-11-20T09:23:35;19.67;;;13.68;;
55172;SDS011;41061;52.822;6.860;2022-11-20T09:26:06;17.35;;;10.75;;
55172;SDS011;41061;52.822;6.860;2022-11-20T09:28:34;17.02;;;10.82;;
55172;SDS011;41061;52.822;6.860;2022-11-20T09:30:59;17.30;;;10.50;;
55172;SDS011;41061;52.822;6.860;2022-11-20T09:33:25;18.88;;;10.90;;
55172;SDS011;41061;52.822;6.860;2022-11-20T09:35:51;18.42;;;11.35;;
55172;SDS011;41061;52.822;6.860;2022-11-20T09:38:17;18.98;;;11.75;;
55172;SDS011;41061;52.822;6.860;2022-11-20T09:40:45;20.73;;;13.95;;
55172;SDS011;41061;52.822;6.860;2022-11-20T09:43:19;18.90;;;12.93;;
55172;SDS011;41061;52.822;6.860;2022-11-20T09:46:04;18.08;;;11.23;;
55172;SDS011;41061;52.822;6.860;2022-11-20T09:51:52;15.20;;;10.10;;
55172;SDS011;41061;52.822;6.860;2022-11-20T09:54:30;18.85;;;10.18;;
55172;SDS011;41061;52.822;6.860;2022-11-20T10:01:59;20.55;;;11.27;;
55172;SDS011;41061;52.822;6.860;2022-11-20T10:04:26;19.27;;;10.98;;
55172;SDS011;41061;52.822;6.860;2022-11-20T10:07:00;18.48;;;10.68;;
55172;SDS011;41061;52.822;6.860;2022-11-20T10:09:36;15.20;;;10.35;;
55172;SDS011;41061;52.822;6.860;2022-11-20T10:12:17;17.27;;;11.10;;
55172;SDS011;41061;52.822;6.860;2022-11-20T10:15:00;17.95;;;10.93;;
55172;SDS011;41061;52.822;6.860;2022-11-20T10:20:48;15.98;;;10.38;;
55172;SDS011;41061;52.822;6.860;2022-11-20T10:31:36;17.85;;;10.40;;
55172;SDS011;41061;52.822;6.860;2022-11-20T10:36:52;16.58;;;10.25;;
55172;SDS011;41061;52.822;6.860;2022-11-20T10:42:15;17.33;;;10.43;;
55172;SDS011;41061;52.822;6.860;2022-11-20T10:44:51;14.52;;;10.05;;
55172;SDS011;41061;52.822;6.860;2022-11-20T10:47:26;18.40;;;10.60;;
55172;SDS011;41061;52.822;6.860;2022-11-20T10:49:55;20.00;;;11.05;;
55172;SDS011;41061;52.822;6.860;2022-11-20T10:52:35;15.55;;;10.50;;
55172;SDS011;41061;52.822;6.860;2022-11-20T11:00:47;16.17;;;10.18;;
55172;SDS011;41061;52.822;6.860;2022-11-20T11:03:29;14.80;;;8.80;;
55172;SDS011;41061;52.822;6.860;2022-11-20T11:05:59;16.35;;;10.27;;
55172;SDS011;41061;52.822;6.860;2022-11-20T11:08:35;16.65;;;9.18;;
55172;SDS011;41061;52.822;6.860;2022-11-20T11:11:21;13.85;;;8.73;;
55172;SDS011;41061;52.822;6.860;2022-11-20T11:14:03;16.58;;;9.23;;
55172;SDS011;41061;52.822;6.860;2022-11-20T11:16:52;13.93;;;9.20;;
55172;SDS011;41061;52.822;6.860;2022-11-20T11:19:19;13.70;;;8.65;;
55172;SDS011;41061;52.822;6.860;2022-11-20T11:21:52;13.23;;;8.70;;
55172;SDS011;41061;52.822;6.860;2022-11-20T11:24:21;13.32;;;8.10;;
55172;SDS011;41061;52.822;6.860;2022-11-20T11:27:30;10.93;;;7.32;;
55172;SDS011;41061;52.822;6.860;2022-11-20T11:29:39;11.02;;;8.20;;
55172;SDS011;41061;52.822;6.860;2022-11-20T11:32:05;11.90;;;7.75;;
55172;SDS011;41061;52.822;6.860;2022-11-20T11:34:32;13.88;;;8.32;;
55172;SDS011;41061;52.822;6.860;2022-11-20T11:36:59;13.55;;;8.57;;
55172;SDS011;41061;52.822;6.860;2022-11-20T11:39:28;10.93;;;7.65;;
55172;SDS011;41061;52.822;6.860;2022-11-20T11:41:55;12.95;;;7.07;;
55172;SDS011;41061;52.822;6.860;2022-11-20T11:44:29;9.48;;;6.82;;
55172;SDS011;41061;52.822;6.860;2022-11-20T11:49:59;11.25;;;7.35;;
55172;SDS011;41061;52.822;6.860;2022-11-20T11:55:09;8.75;;;6.65;;
55172;SDS011;41061;52.822;6.860;2022-11-20T11:57:52;13.05;;;7.82;;
55172;SDS011;41061;52.822;6.860;2022-11-20T12:00:24;11.35;;;7.03;;
55172;SDS011;41061;52.822;6.860;2022-11-20T12:05:42;12.25;;;7.50;;
55172;SDS011;41061;52.822;6.860;2022-11-20T12:11:11;11.43;;;8.30;;
55172;SDS011;41061;52.822;6.860;2022-11-20T12:13:50;10.38;;;7.25;;
55172;SDS011;41061;52.822;6.860;2022-11-20T12:16:37;12.90;;;7.57;;
55172;SDS011;41061;52.822;6.860;2022-11-20T12:19:08;24.02;;;10.60;;
55172;SDS011;41061;52.822;6.860;2022-11-20T12:21:45;21.77;;;10.05;;
55172;SDS011;41061;52.822;6.860;2022-11-20T12:30:04;11.35;;;6.57;;
55172;SDS011;41061;52.822;6.860;2022-11-20T12:32:45;12.63;;;7.45;;
55172;SDS011;41061;52.822;6.860;2022-11-20T12:43:33;14.90;;;8.23;;
55172;SDS011;41061;52.822;6.860;2022-11-20T12:46:46;10.45;;;7.10;;
55172;SDS011;41061;52.822;6.860;2022-11-20T12:52:35;10.67;;;7.57;;
55172;SDS011;41061;52.822;6.860;2022-11-20T12:55:22;11.25;;;7.88;;
55172;SDS011;41061;52.822;6.860;2022-11-20T13:00:43;12.85;;;7.70;;
55172;SDS011;41061;52.822;6.860;2022-11-20T13:08:36;12.73;;;8.10;;
55172;SDS011;41061;52.822;6.860;2022-11-20T13:11:09;12.23;;;8.00;;
55172;SDS011;41061;52.822;6.860;2022-11-20T13:17:11;12.77;;;8.60;;
55172;SDS011;41061;52.822;6.860;2022-11-20T13:19:19;12.70;;;8.70;;
55172;SDS011;41061;52.822;6.860;2022-11-20T13:21:47;14.00;;;8.63;;
55172;SDS011;41061;52.822;6.860;2022-11-20T13:26:47;17.15;;;9.02;;
55172;SDS011;41061;52.822;6.860;2022-11-20T13:29:25;12.52;;;8.65;;
55172;SDS011;41061;52.822;6.860;2022-11-20T13:32:00;14.38;;;8.88;;
55172;SDS011;41061;52.822;6.860;2022-11-20T13:34:32;12.40;;;7.93;;
55172;SDS011;41061;52.822;6.860;2022-11-20T13:36:58;11.52;;;8.48;;
55172;SDS011;41061;52.822;6.860;2022-11-20T13:39:30;13.82;;;8.95;;
55172;SDS011;41061;52.822;6.860;2022-11-20T13:42:00;14.00;;;9.38;;
55172;SDS011;41061;52.822;6.860;2022-11-20T13:44:46;15.60;;;9.65;;
55172;SDS011;41061;52.822;6.860;2022-11-20T13:47:25;13.70;;;8.50;;
55172;SDS011;41061;52.822;6.860;2022-11-20T13:49:53;13.00;;;9.25;;
55172;SDS011;41061;52.822;6.860;2022-11-20T13:55:02;13.68;;;9.40;;
55172;SDS011;41061;52.822;6.860;2022-11-20T13:57:34;15.65;;;9.52;;
55172;SDS011;41061;52.822;6.860;2022-11-20T14:00:19;15.10;;;9.85;;
55172;SDS011;41061;52.822;6.860;2022-11-20T14:03:01;12.95;;;9.13;;
55172;SDS011;41061;52.822;6.860;2022-11-20T14:05:46;16.65;;;10.65;;
55172;SDS011;41061;52.822;6.860;2022-11-20T14:08:23;19.45;;;11.77;;
55172;SDS011;41061;52.822;6.860;2022-11-20T14:11:02;15.50;;;10.10;;
55172;SDS011;41061;52.822;6.860;2022-11-20T14:13:37;16.85;;;10.20;;
55172;SDS011;41061;52.822;6.860;2022-11-20T14:16:03;15.25;;;10.30;;
55172;SDS011;41061;52.822;6.860;2022-11-20T14:18:28;14.93;;;10.38;;
55172;SDS011;41061;52.822;6.860;2022-11-20T14:20:54;14.82;;;10.20;;
55172;SDS011;41061;52.822;6.860;2022-11-20T14:23:23;16.73;;;10.00;;
55172;SDS011;41061;52.822;6.860;2022-11-20T14:25:53;16.38;;;10.07;;
55172;SDS011;41061;52.822;6.860;2022-11-20T14:28:21;17.75;;;10.88;;
55172;SDS011;41061;52.822;6.860;2022-11-20T14:30:51;16.70;;;11.25;;
55172;SDS011;41061;52.822;6.860;2022-11-20T14:33:17;15.18;;;9.95;;
55172;SDS011;41061;52.822;6.860;2022-11-20T14:35:46;15.45;;;10.88;;
55172;SDS011;41061;52.822;6.860;2022-11-20T14:38:14;17.20;;;12.02;;
55172;SDS011;41061;52.822;6.860;2022-11-20T14:40:42;20.75;;;11.75;;
55172;SDS011;41061;52.822;6.860;2022-11-20T14:43:24;20.00;;;11.60;;
55172;SDS011;41061;52.822;6.860;2022-11-20T14:45:59;24.75;;;11.88;;
55172;SDS011;41061;52.822;6.860;2022-11-20T14:51:57;17.73;;;11.20;;
55172;SDS011;41061;52.822;6.860;2022-11-20T14:56:41;17.48;;;11.80;;
55172;SDS011;41061;52.822;6.860;2022-11-20T14:59:22;19.95;;;12.50;;
55172;SDS011;41061;52.822;6.860;2022-11-20T15:01:59;18.80;;;11.73;;
55172;SDS011;41061;52.822;6.860;2022-11-20T15:04:27;19.17;;;11.98;;
55172;SDS011;41061;52.822;6.860;2022-11-20T15:06:54;19.83;;;12.60;;
55172;SDS011;41061;52.822;6.860;2022-11-20T15:09:22;22.98;;;12.23;;
55172;SDS011;41061;52.822;6.860;2022-11-20T15:11:58;17.58;;;12.02;;
55172;SDS011;41061;52.822;6.860;2022-11-20T15:14:26;21.00;;;12.95;;
55172;SDS011;41061;52.822;6.860;2022-11-20T15:16:53;20.52;;;13.23;;
55172;SDS011;41061;52.822;6.860;2022-11-20T15:19:23;20.23;;;12.77;;
55172;SDS011;41061;52.822;6.860;2022-11-20T15:21:50;18.90;;;12.23;;
55172;SDS011;41061;52.822;6.860;2022-11-20T15:24:16;18.30;;;12.43;;
55172;SDS011;41061;52.822;6.860;2022-11-20T15:26:42;21.23;;;13.25;;
55172;SDS011;41061;52.822;6.860;2022-11-20T15:29:09;19.77;;;12.75;;
55172;SDS011;41061;52.822;6.860;2022-11-20T15:31:39;19.75;;;12.75;;
55172;SDS011;41061;52.822;6.860;2022-11-20T15:34:11;19.25;;;12.18;;
55172;SDS011;41061;52.822;6.860;2022-11-20T15:36:38;20.92;;;12.70;;
55172;SDS011;41061;52.822;6.860;2022-11-20T15:39:04;20.95;;;13.18;;
55172;SDS011;41061;52.822;6.860;2022-11-20T15:41:32;19.65;;;11.80;;
55172;SDS011;41061;52.822;6.860;2022-11-20T15:44:02;19.77;;;13.63;;
55172;SDS011;41061;52.822;6.860;2022-11-20T15:46:32;18.40;;;12.73;;
55172;SDS011;41061;52.822;6.860;2022-11-20T15:49:05;18.63;;;12.82;;
55172;SDS011;41061;52.822;6.860;2022-11-20T15:51:35;20.05;;;12.75;;
55172;SDS011;41061;52.822;6.860;2022-11-20T15:54:10;20.55;;;13.27;;
55172;SDS011;41061;52.822;6.860;2022-11-20T15:56:38;21.92;;;13.20;;
55172;SDS011;41061;52.822;6.860;2022-11-20T15:59:04;19.65;;;12.52;;
55172;SDS011;41061;52.822;6.860;2022-11-20T16:01:29;18.05;;;12.23;;
55172;SDS011;41061;52.822;6.860;2022-11-20T16:03:55;21.30;;;13.02;;
55172;SDS011;41061;52.822;6.860;2022-11-20T16:06:21;19.98;;;11.45;;
55172;SDS011;41061;52.822;6.860;2022-11-20T16:08:47;18.27;;;12.00;;